Time;durP1;ratioP1;P1;durP2;ratioP2;P2;SDS_P1;SDS_P2;PMS_P1;PMS_P2;Temp;Humidity;BMP_temperature;BMP_pressure;BME280_temperature;BME280_humidity;BME280_pressure;Samples;Min_cycle;Max_cycle;Signal;HPM_P1;HPM_P2
2024/01/19 00:01:20;;;;;;;112.07;64.55;;;6.90;99.90;;;;;;5119832;27;20055;-76
2024/01/19 00:03:46;;;;;;;142.93;69.80;;;6.90;99.90;;;;;;5106493;28;20390;-76
2024/01/19 00:06:12;;;;;;;133.10;71.05;;;6.90;99.90;;;;;;5123423;27;20027;-76
2024/01/19 00:08:38;;;;;;;116.68;65.10;;;6.80;99.90;;;;;;5124476;27;20126;-76
2024/01/19 00:11:04;;;;;;;114.68;63.97;;;6.80;99.90;;;;;;5153251;27;20024;-76
2024/01/19 00:13:31;;;;;;;123.50;69.22;;;6.90;99.90;;;;;;5110041;28;20018;-76
2024/01/19 00:15:56;;;;;;;124.50;68.57;;;6.80;99.90;;;;;;5123741;27;20079;-76
2024/01/19 00:18:24;;;;;;;116.32;65.18;;;6.80;99.90;;;;;;5115704;28;20063;-76
2024/01/19 00:20:50;;;;;;;122.30;67.57;;;6.80;99.90;;;;;;5119594;28;20113;-76
2024/01/19 00:23:16;;;;;;;113.85;64.22;;;6.80;99.90;;;;;;5117111;28;20159;-76
2024/01/19 00:25:41;;;;;;;125.25;67.63;;;6.80;99.90;;;;;;5116738;28;20028;-76
2024/01/19 00:28:07;;;;;;;104.30;60.65;;;6.90;99.90;;;;;;5114915;28;20453;-76
2024/01/19 00:30:33;;;;;;;111.47;67.32;;;6.90;99.90;;;;;;5115140;28;20019;-76
2024/01/19 00:32:58;;;;;;;113.82;62.85;;;6.90;99.90;;;;;;5113199;28;20024;-76
2024/01/19 00:35:24;;;;;;;133.57;67.22;;;6.90;99.90;;;;;;5123103;28;20028;-76
2024/01/19 00:37:50;;;;;;;117.80;65.20;;;6.90;99.90;;;;;;5112737;28;20039;-76
2024/01/19 00:40:15;;;;;;;113.28;65.65;;;6.90;99.90;;;;;;5123061;27;20110;-76
2024/01/19 00:42:42;;;;;;;110.88;63.28;;;6.90;99.90;;;;;;5120677;27;20062;-76
2024/01/19 00:45:12;;;;;;;98.50;57.75;;;6.90;99.90;;;;;;5122829;27;20024;-76
2024/01/19 00:47:38;;;;;;;133.80;66.88;;;6.90;99.90;;;;;;5121026;27;20027;-76
2024/01/19 00:50:05;;;;;;;108.32;63.08;;;6.90;99.90;;;;;;5124354;27;20023;-76
2024/01/19 00:52:31;;;;;;;123.07;67.82;;;6.90;99.90;;;;;;5121293;27;20028;-76
2024/01/19 00:54:57;;;;;;;116.95;64.95;;;6.90;99.90;;;;;;5124004;27;20034;-76
2024/01/19 00:57:23;;;;;;;102.30;61.40;;;6.80;99.90;;;;;;5121615;27;20080;-76
2024/01/19 00:59:48;;;;;;;110.35;61.75;;;6.90;99.90;;;;;;5122701;27;20027;-76
2024/01/19 01:02:14;;;;;;;120.80;66.63;;;6.90;99.90;;;;;;5121660;27;20023;-76
2024/01/19 01:04:40;;;;;;;117.18;63.42;;;6.90;99.90;;;;;;5123104;27;20023;-76
2024/01/19 01:07:05;;;;;;;103.35;60.92;;;6.90;99.90;;;;;;5118821;27;20024;-76
2024/01/19 01:09:31;;;;;;;109.97;63.08;;;6.90;99.90;;;;;;5121547;27;20111;-76
2024/01/19 01:11:57;;;;;;;92.70;56.75;;;6.90;99.90;;;;;;5154687;27;20019;-76
2024/01/19 01:14:23;;;;;;;103.47;61.88;;;6.90;99.90;;;;;;5122934;27;20442;-76
2024/01/19 01:16:48;;;;;;;100.63;59.33;;;6.90;99.90;;;;;;5118948;27;20043;-76
2024/01/19 01:19:14;;;;;;;91.10;56.30;;;6.90;99.90;;;;;;5121388;27;20359;-76
2024/01/19 01:21:39;;;;;;;94.80;59.80;;;6.90;99.90;;;;;;5122825;27;20181;-76
2024/01/19 01:24:05;;;;;;;96.38;59.78;;;6.90;99.90;;;;;;5121475;27;20031;-76
2024/01/19 01:26:31;;;;;;;101.05;61.13;;;6.90;99.90;;;;;;5121738;27;20505;-76
2024/01/19 01:28:56;;;;;;;101.45;61.53;;;6.90;99.90;;;;;;5116800;27;20047;-76
2024/01/19 01:31:23;;;;;;;105.40;60.13;;;6.90;99.90;;;;;;5123841;27;20027;-76
2024/01/19 01:33:48;;;;;;;106.75;60.85;;;6.90;99.90;;;;;;5124667;27;20475;-76
2024/01/19 01:36:14;;;;;;;110.90;62.83;;;6.90;99.90;;;;;;5124341;27;20019;-76
2024/01/19 01:38:43;;;;;;;99.05;59.65;;;6.90;99.90;;;;;;5110799;28;20467;-76
2024/01/19 01:41:09;;;;;;;97.63;57.00;;;6.90;99.90;;;;;;5118384;27;20047;-76
2024/01/19 01:43:34;;;;;;;93.93;57.47;;;6.90;99.90;;;;;;5118735;27;20471;-76
2024/01/19 01:46:00;;;;;;;99.10;59.10;;;6.90;99.90;;;;;;5124448;27;20032;-76
2024/01/19 01:48:26;;;;;;;93.25;58.70;;;6.90;99.90;;;;;;5118483;27;20110;-76
2024/01/19 01:50:54;;;;;;;105.90;60.90;;;6.90;99.90;;;;;;5155459;27;20432;-77
2024/01/19 01:53:20;;;;;;;99.57;61.25;;;6.90;99.90;;;;;;5116842;27;20028;-76
2024/01/19 01:55:47;;;;;;;103.30;60.67;;;6.90;99.90;;;;;;5125422;27;20029;-76
2024/01/19 01:58:15;;;;;;;122.80;67.78;;;6.90;99.90;;;;;;5119065;27;20031;-76
2024/01/19 02:00:43;;;;;;;124.20;66.07;;;6.90;99.90;;;;;;5116854;27;20118;-77
2024/01/19 02:03:09;;;;;;;109.63;61.88;;;6.90;99.90;;;;;;5117308;27;20394;-76
2024/01/19 02:05:34;;;;;;;115.53;64.45;;;6.80;99.90;;;;;;5124974;27;20117;-77
2024/01/19 02:08:00;;;;;;;106.57;58.65;;;6.80;99.90;;;;;;5117240;27;20024;-76
2024/01/19 02:10:26;;;;;;;102.38;62.95;;;6.90;99.90;;;;;;5124716;27;20023;-76
2024/01/19 02:12:53;;;;;;;103.28;59.42;;;6.90;99.90;;;;;;5119828;27;20029;-77
2024/01/19 02:15:23;;;;;;;105.18;63.55;;;6.90;99.90;;;;;;5122743;27;20016;-76
2024/01/19 02:17:50;;;;;;;97.30;58.92;;;6.90;99.90;;;;;;5118889;27;20047;-76
2024/01/19 02:20:17;;;;;;;102.00;61.83;;;6.90;99.90;;;;;;5118184;27;20029;-76
2024/01/19 02:22:44;;;;;;;104.70;63.15;;;6.90;99.90;;;;;;5110840;27;20035;-76
2024/01/19 02:25:11;;;;;;;108.15;60.72;;;6.90;99.90;;;;;;5126046;27;20030;-76
2024/01/19 02:27:37;;;;;;;107.13;62.40;;;6.90;99.90;;;;;;5115939;27;20032;-76
2024/01/19 02:30:03;;;;;;;109.30;62.58;;;6.90;99.90;;;;;;5126782;27;20080;-76
2024/01/19 02:32:29;;;;;;;108.68;60.88;;;6.90;99.90;;;;;;5117104;27;20024;-76
2024/01/19 02:34:55;;;;;;;122.47;66.40;;;6.90;99.90;;;;;;5121925;27;20107;-76
2024/01/19 02:37:20;;;;;;;114.25;64.85;;;6.80;99.90;;;;;;5118203;27;20023;-76
2024/01/19 02:39:46;;;;;;;100.95;58.90;;;6.90;99.90;;;;;;5125286;27;20023;-76
2024/01/19 02:42:12;;;;;;;100.50;57.75;;;6.90;99.90;;;;;;5117012;27;20084;-76
2024/01/19 02:44:37;;;;;;;120.80;67.05;;;6.90;99.90;;;;;;5121146;27;20539;-76
2024/01/19 02:47:03;;;;;;;129.30;67.47;;;6.90;99.90;;;;;;5120604;27;20031;-76
2024/01/19 02:49:32;;;;;;;111.25;62.33;;;6.80;99.90;;;;;;5119662;27;20098;-76
2024/01/19 02:52:01;;;;;;;104.28;59.50;;;6.80;99.90;;;;;;5121658;27;20084;-76
2024/01/19 02:54:27;;;;;;;116.80;63.22;;;6.90;99.90;;;;;;5154788;27;20031;-76
2024/01/19 02:56:52;;;;;;;99.28;58.78;;;6.90;99.90;;;;;;5122297;27;20360;-76
2024/01/19 02:59:18;;;;;;;115.25;61.83;;;6.90;99.90;;;;;;5123615;27;20063;-76
2024/01/19 03:01:44;;;;;;;105.47;61.45;;;6.90;99.90;;;;;;5119252;27;20027;-76
2024/01/19 03:04:09;;;;;;;106.05;63.10;;;6.90;99.90;;;;;;5120034;27;20368;-76
2024/01/19 03:06:35;;;;;;;104.57;59.72;;;6.90;99.90;;;;;;5118752;27;20028;-76
2024/01/19 03:09:00;;;;;;;100.53;60.95;;;6.90;99.90;;;;;;5116905;27;20027;-76
2024/01/19 03:11:26;;;;;;;113.07;61.67;;;6.90;99.90;;;;;;5157164;27;20115;-76
2024/01/19 03:13:53;;;;;;;102.22;60.42;;;6.90;99.90;;;;;;5119790;27;20042;-76
2024/01/19 03:16:19;;;;;;;120.43;64.70;;;6.90;99.90;;;;;;5120438;27;20028;-76
2024/01/19 03:18:45;;;;;;;111.13;60.20;;;6.90;99.90;;;;;;5116423;27;20028;-76
2024/01/19 03:21:12;;;;;;;105.45;59.40;;;6.90;99.90;;;;;;5121557;27;20019;-76
2024/01/19 03:23:37;;;;;;;123.22;63.92;;;6.90;99.90;;;;;;5116879;27;20060;-76
2024/01/19 03:26:04;;;;;;;100.10;57.85;;;6.90;99.90;;;;;;5121341;27;20028;-76
2024/01/19 03:28:30;;;;;;;97.25;58.17;;;6.90;99.90;;;;;;5118653;27;20035;-76
2024/01/19 03:30:56;;;;;;;125.20;64.60;;;6.90;99.90;;;;;;5121740;27;20509;-76
2024/01/19 03:33:21;;;;;;;114.28;61.90;;;6.90;99.90;;;;;;5107035;27;20030;-76
2024/01/19 03:35:47;;;;;;;120.93;64.40;;;6.90;99.90;;;;;;5124046;27;20031;-76
2024/01/19 03:38:13;;;;;;;115.10;62.95;;;6.90;99.90;;;;;;5116848;27;20102;-76
2024/01/19 03:40:38;;;;;;;95.28;57.78;;;6.90;99.90;;;;;;5149670;27;20023;-76
2024/01/19 03:43:04;;;;;;;102.72;59.25;;;6.90;99.90;;;;;;5116822;27;20431;-76
2024/01/19 03:45:30;;;;;;;72.88;47.25;;;6.90;99.90;;;;;;5122948;27;20030;-76
2024/01/19 03:47:55;;;;;;;65.15;45.10;;;6.80;99.90;;;;;;5114849;27;20029;-76
2024/01/19 03:50:22;;;;;;;60.65;40.88;;;6.80;99.90;;;;;;5120231;27;20023;-76
2024/01/19 03:52:48;;;;;;;58.22;39.00;;;6.80;99.90;;;;;;5117668;27;20016;-76
2024/01/19 03:55:16;;;;;;;65.75;44.50;;;6.80;99.90;;;;;;5112798;27;20084;-76
2024/01/19 03:57:41;;;;;;;55.42;39.08;;;6.70;99.90;;;;;;5116094;27;20035;-76
2024/01/19 04:00:08;;;;;;;61.35;40.95;;;6.70;99.90;;;;;;5120424;27;20023;-76
2024/01/19 04:02:35;;;;;;;60.03;42.10;;;6.70;99.90;;;;;;5108051;27;20081;-76
2024/01/19 04:05:01;;;;;;;61.47;42.42;;;6.70;99.90;;;;;;5125691;27;20068;-76
2024/01/19 04:07:26;;;;;;;61.65;39.95;;;6.80;99.90;;;;;;5115825;27;20027;-76
2024/01/19 04:09:52;;;;;;;55.17;39.60;;;6.80;99.90;;;;;;5120459;27;20487;-76
2024/01/19 04:12:18;;;;;;;58.50;41.17;;;6.80;99.90;;;;;;5118434;27;20393;-76
2024/01/19 04:14:45;;;;;;;62.05;42.85;;;6.70;99.90;;;;;;5120257;27;20483;-76
2024/01/19 04:17:11;;;;;;;57.97;40.00;;;6.70;99.90;;;;;;5117635;27;20055;-76
2024/01/19 04:19:38;;;;;;;55.33;40.13;;;6.80;99.90;;;;;;5122882;27;20429;-76
2024/01/19 04:22:05;;;;;;;61.83;43.22;;;6.80;99.90;;;;;;5111165;27;20072;-76
2024/01/19 04:24:31;;;;;;;62.50;43.20;;;6.80;99.90;;;;;;5120130;28;20031;-76
2024/01/19 04:26:57;;;;;;;59.15;42.25;;;6.80;99.90;;;;;;5117924;28;20028;-76
2024/01/19 04:29:22;;;;;;;61.53;42.47;;;6.80;99.90;;;;;;5115526;28;20027;-76
2024/01/19 04:31:48;;;;;;;59.65;41.88;;;6.80;99.90;;;;;;5117936;28;20059;-76
2024/01/19 04:34:14;;;;;;;61.45;43.08;;;6.80;99.90;;;;;;5116462;28;20030;-76
2024/01/19 04:36:40;;;;;;;62.90;42.33;;;6.80;99.90;;;;;;5119535;28;20023;-76
2024/01/19 04:39:06;;;;;;;78.93;48.38;;;6.80;99.90;;;;;;5119041;28;20076;-76
2024/01/19 04:41:32;;;;;;;80.38;50.22;;;6.80;99.90;;;;;;5119882;28;20021;-76
2024/01/19 04:43:59;;;;;;;88.43;53.25;;;6.80;99.90;;;;;;5114020;28;20024;-76
2024/01/19 04:46:24;;;;;;;92.53;55.28;;;6.80;99.90;;;;;;5118864;28;20446;-76
2024/01/19 04:48:50;;;;;;;87.43;51.33;;;6.80;99.90;;;;;;5119087;28;20055;-76
2024/01/19 04:51:16;;;;;;;70.72;47.10;;;6.80;99.90;;;;;;5119133;27;21338;-76
2024/01/19 04:53:41;;;;;;;69.57;46.80;;;6.70;99.90;;;;;;5118634;28;20025;-76
2024/01/19 04:56:08;;;;;;;67.40;45.17;;;6.70;99.90;;;;;;5122651;28;20494;-76
2024/01/19 04:58:37;;;;;;;70.60;45.00;;;6.60;99.90;;;;;;5115248;28;20080;-76
2024/01/19 05:01:03;;;;;;;65.07;44.47;;;6.60;99.90;;;;;;5119042;27;20029;-76
2024/01/19 05:03:30;;;;;;;58.17;41.25;;;6.60;99.90;;;;;;5118377;28;20066;-76
2024/01/19 05:05:55;;;;;;;56.67;40.35;;;6.60;99.90;;;;;;5122018;28;20055;-76
2024/01/19 05:08:21;;;;;;;61.95;43.53;;;6.70;99.90;;;;;;5113803;28;20457;-76
2024/01/19 05:10:47;;;;;;;67.88;42.90;;;6.70;99.90;;;;;;5155569;27;20027;-76
2024/01/19 05:13:13;;;;;;;61.15;41.80;;;6.70;99.90;;;;;;5112325;28;20035;-76
2024/01/19 05:15:39;;;;;;;53.70;38.72;;;6.70;99.90;;;;;;5117790;28;20486;-76
2024/01/19 05:18:05;;;;;;;55.80;38.63;;;6.70;99.90;;;;;;5116726;28;20142;-76
2024/01/19 05:20:31;;;;;;;50.92;37.97;;;6.70;99.90;;;;;;5117746;27;20549;-76
2024/01/19 05:22:56;;;;;;;56.55;40.17;;;6.70;99.90;;;;;;5112762;28;20050;-76
2024/01/19 05:25:22;;;;;;;53.78;39.15;;;6.70;99.90;;;;;;5122763;28;20027;-76
2024/01/19 05:27:53;;;;;;;53.50;39.30;;;6.70;99.90;;;;;;5116136;27;20446;-76
2024/01/19 05:30:23;;;;;;;53.35;37.50;;;6.70;99.90;;;;;;5117878;27;20024;-76
2024/01/19 05:32:49;;;;;;;50.85;37.95;;;6.70;99.90;;;;;;5119512;27;20027;-76
2024/01/19 05:35:14;;;;;;;53.58;38.22;;;6.70;99.90;;;;;;5123330;27;20024;-76
2024/01/19 05:37:40;;;;;;;52.63;36.30;;;6.70;99.90;;;;;;5116527;27;20089;-76
2024/01/19 05:40:07;;;;;;;52.38;38.42;;;6.70;99.90;;;;;;5125964;27;20066;-76
2024/01/19 05:42:32;;;;;;;45.97;35.75;;;6.70;99.90;;;;;;5119926;27;20023;-76
2024/01/19 05:44:58;;;;;;;53.30;39.70;;;6.70;99.90;;;;;;5156234;27;20032;-76
2024/01/19 05:47:23;;;;;;;57.55;41.13;;;6.70;99.90;;;;;;5119405;27;20023;-76
2024/01/19 05:49:49;;;;;;;56.15;39.85;;;6.70;99.90;;;;;;5114104;27;20030;-76
2024/01/19 05:52:15;;;;;;;61.92;39.38;;;6.70;99.90;;;;;;5120971;27;20034;-76
2024/01/19 05:54:40;;;;;;;57.17;41.58;;;6.70;99.90;;;;;;5123029;27;20031;-76
2024/01/19 05:57:08;;;;;;;58.72;41.00;;;6.70;99.90;;;;;;5120899;27;20507;-76
2024/01/19 05:59:35;;;;;;;57.78;41.05;;;6.70;99.90;;;;;;5120921;27;20485;-76
2024/01/19 06:02:01;;;;;;;60.20;40.55;;;6.70;99.90;;;;;;5120068;27;20114;-76
2024/01/19 06:04:27;;;;;;;55.53;39.78;;;6.70;99.90;;;;;;5113992;27;20479;-76
2024/01/19 06:06:52;;;;;;;52.75;39.78;;;6.70;99.90;;;;;;5122736;27;20027;-76
2024/01/19 06:09:18;;;;;;;58.47;41.05;;;6.70;99.90;;;;;;5122294;27;20059;-76
2024/01/19 06:11:47;;;;;;;57.72;39.88;;;6.70;99.90;;;;;;5115606;27;20387;-76
2024/01/19 06:14:12;;;;;;;53.88;40.50;;;6.70;99.90;;;;;;5119322;27;20041;-76
2024/01/19 06:16:39;;;;;;;60.25;43.22;;;6.70;99.90;;;;;;5113263;28;20052;-76
2024/01/19 06:19:04;;;;;;;62.92;42.63;;;6.70;99.90;;;;;;5114860;27;20028;-76
2024/01/19 06:21:30;;;;;;;55.40;39.47;;;6.70;99.90;;;;;;5114385;27;20028;-76
2024/01/19 06:23:56;;;;;;;55.33;41.90;;;6.70;99.90;;;;;;5121140;27;20076;-76
2024/01/19 06:26:21;;;;;;;57.78;40.10;;;6.70;99.90;;;;;;5115459;27;20391;-77
2024/01/19 06:28:47;;;;;;;54.80;38.90;;;6.70;99.90;;;;;;5117864;27;20023;-76
2024/01/19 06:31:13;;;;;;;57.20;39.58;;;6.70;99.90;;;;;;5117953;27;20018;-76
2024/01/19 06:33:39;;;;;;;57.20;40.53;;;6.70;99.90;;;;;;5117064;27;20035;-76
2024/01/19 06:36:10;;;;;;;53.60;41.30;;;6.70;99.90;;;;;;5123105;27;20042;-76
2024/01/19 06:38:36;;;;;;;59.45;40.63;;;6.70;99.90;;;;;;5151469;27;20042;-76
2024/01/19 06:41:05;;;;;;;52.65;38.40;;;6.70;99.90;;;;;;5121964;27;20023;-76
2024/01/19 06:43:31;;;;;;;60.88;40.20;;;6.60;99.90;;;;;;5120056;27;20024;-76
2024/01/19 06:45:56;;;;;;;50.47;39.10;;;6.70;99.90;;;;;;5124503;27;20522;-76
2024/01/19 06:48:22;;;;;;;53.97;40.58;;;6.70;99.90;;;;;;5117827;27;20106;-76
2024/01/19 06:50:51;;;;;;;58.83;42.45;;;6.70;99.90;;;;;;5116810;27;20055;-76
2024/01/19 06:53:16;;;;;;;56.47;40.08;;;6.70;99.90;;;;;;5119155;27;20582;-76
2024/01/19 06:55:42;;;;;;;55.22;39.60;;;6.70;99.90;;;;;;5122197;27;20039;-76
2024/01/19 06:58:08;;;;;;;50.55;38.15;;;6.70;99.90;;;;;;5116358;27;20038;-76
2024/01/19 07:00:33;;;;;;;54.92;40.65;;;6.70;99.90;;;;;;5123067;27;20249;-76
2024/01/19 07:02:59;;;;;;;54.17;38.10;;;6.70;99.90;;;;;;5114829;27;20035;-76
2024/01/19 07:05:25;;;;;;;59.47;40.72;;;6.70;99.90;;;;;;5120553;27;20027;-76
2024/01/19 07:07:51;;;;;;;61.53;41.42;;;6.70;99.90;;;;;;5114556;27;20103;-76
2024/01/19 07:10:18;;;;;;;60.20;39.33;;;6.70;99.90;;;;;;5121654;27;20111;-76
2024/01/19 07:12:44;;;;;;;55.00;38.95;;;6.70;99.90;;;;;;5116646;27;20076;-76
2024/01/19 07:15:10;;;;;;;61.42;42.33;;;6.70;99.90;;;;;;5127730;27;20428;-76
2024/01/19 07:17:35;;;;;;;60.10;42.00;;;6.60;99.90;;;;;;5112756;27;20105;-76
2024/01/19 07:20:05;;;;;;;64.78;43.50;;;6.70;99.90;;;;;;5116458;27;20027;-76
2024/01/19 07:22:31;;;;;;;60.85;43.60;;;6.70;99.90;;;;;;5120860;27;20070;-76
2024/01/19 07:24:56;;;;;;;66.55;45.45;;;6.70;99.90;;;;;;5113370;27;20382;-76
2024/01/19 07:27:22;;;;;;;66.53;43.60;;;6.70;99.90;;;;;;5120423;27;20023;-76
2024/01/19 07:29:48;;;;;;;61.92;43.95;;;6.70;99.90;;;;;;5146737;27;20463;-76
2024/01/19 07:32:13;;;;;;;64.30;43.53;;;6.70;99.90;;;;;;5120820;27;20094;-76
2024/01/19 07:34:39;;;;;;;64.90;45.05;;;6.70;99.90;;;;;;5133277;27;20020;-76
2024/01/19 07:37:05;;;;;;;67.07;45.45;;;6.70;99.90;;;;;;5117837;27;20028;-76
2024/01/19 07:39:31;;;;;;;75.75;50.13;;;6.70;99.90;;;;;;5123151;27;20110;-76
2024/01/19 07:41:56;;;;;;;83.22;55.55;;;6.70;99.90;;;;;;5121262;27;20106;-76
2024/01/19 07:44:22;;;;;;;82.55;53.60;;;6.60;99.90;;;;;;5120310;27;20042;-76
2024/01/19 07:46:48;;;;;;;76.47;53.15;;;6.60;99.90;;;;;;5116927;27;20023;-76
2024/01/19 07:49:20;;;;;;;73.93;47.60;;;6.60;99.90;;;;;;5116065;27;20028;-76
2024/01/19 07:51:47;;;;;;;70.07;46.42;;;6.60;99.90;;;;;;5113847;27;20031;-76
2024/01/19 07:54:12;;;;;;;70.05;47.53;;;6.60;99.90;;;;;;5119611;27;20359;-76
2024/01/19 07:56:38;;;;;;;74.25;49.90;;;6.60;99.90;;;;;;5152115;27;20057;-76
2024/01/19 07:59:04;;;;;;;75.00;48.92;;;6.50;99.90;;;;;;5120944;27;20482;-76
2024/01/19 08:01:32;;;;;;;78.15;50.13;;;6.50;99.90;;;;;;5123152;27;20483;-76
2024/01/19 08:03:58;;;;;;;71.38;48.13;;;6.50;99.90;;;;;;5110974;27;20085;-77
2024/01/19 08:06:23;;;;;;;77.63;48.78;;;6.40;99.90;;;;;;5113109;28;20024;-76
2024/01/19 08:08:49;;;;;;;74.38;47.55;;;6.40;99.90;;;;;;5112213;27;20092;-76
2024/01/19 08:11:15;;;;;;;74.60;49.72;;;6.40;99.90;;;;;;5117942;27;20027;-76
2024/01/19 08:13:41;;;;;;;71.80;46.35;;;6.40;99.90;;;;;;5108542;28;20020;-76
2024/01/19 08:16:07;;;;;;;73.45;48.25;;;6.40;99.90;;;;;;5099185;28;20450;-76
2024/01/19 08:18:34;;;;;;;75.50;49.13;;;6.40;99.90;;;;;;5121933;27;20027;-76
2024/01/19 08:21:03;;;;;;;74.38;48.10;;;6.40;99.90;;;;;;5127704;27;20054;-76
2024/01/19 08:23:33;;;;;;;67.75;45.05;;;6.40;99.90;;;;;;5105656;28;20028;-76
2024/01/19 08:25:58;;;;;;;70.93;47.85;;;6.40;99.90;;;;;;5112820;28;20134;-76
2024/01/19 08:28:24;;;;;;;70.15;45.53;;;6.40;99.90;;;;;;5112932;28;20467;-76
2024/01/19 08:30:50;;;;;;;73.20;48.13;;;6.40;99.90;;;;;;5118003;28;20020;-76
2024/01/19 08:33:16;;;;;;;65.15;43.45;;;6.40;99.90;;;;;;5119658;28;20364;-78
2024/01/19 08:35:42;;;;;;;64.38;42.13;;;6.40;99.90;;;;;;5121598;28;20061;-78
2024/01/19 08:38:08;;;;;;;71.93;49.42;;;6.40;99.90;;;;;;5113831;28;20034;-78
2024/01/19 08:40:34;;;;;;;71.72;48.15;;;6.40;99.90;;;;;;5117627;28;20285;-78
2024/01/19 08:43:00;;;;;;;76.05;49.45;;;6.40;99.90;;;;;;5112223;28;20031;-78
2024/01/19 08:45:28;;;;;;;85.07;53.03;;;6.30;99.90;;;;;;5119399;27;20506;-77
2024/01/19 08:47:57;;;;;;;103.20;67.68;;;6.30;99.90;;;;;;5114730;27;20102;-77
2024/01/19 08:50:23;;;;;;;99.97;63.53;;;6.30;99.90;;;;;;5117538;28;20019;-77
2024/01/19 08:52:48;;;;;;;96.72;57.45;;;6.40;99.90;;;;;;5113346;28;20390;-77
2024/01/19 08:55:14;;;;;;;90.38;57.10;;;6.40;99.90;;;;;;5121526;28;20053;-77
2024/01/19 08:57:40;;;;;;;91.15;55.25;;;6.40;99.90;;;;;;5114569;28;20066;-77
2024/01/19 09:00:07;;;;;;;96.95;56.45;;;6.50;99.90;;;;;;5119313;28;20387;-78
2024/01/19 09:02:33;;;;;;;89.55;54.47;;;6.50;99.90;;;;;;5116959;27;20019;-78
2024/01/19 09:04:59;;;;;;;94.43;54.22;;;6.50;99.90;;;;;;5123504;27;20012;-78
2024/01/19 09:07:25;;;;;;;84.20;53.20;;;6.60;99.90;;;;;;5119090;27;20396;-78
2024/01/19 09:09:51;;;;;;;104.97;57.45;;;6.60;99.90;;;;;;5124988;27;20227;-78
2024/01/19 09:12:17;;;;;;;132.07;64.55;;;6.60;99.90;;;;;;5118317;27;20047;-78
2024/01/19 09:14:43;;;;;;;123.18;61.70;;;6.60;99.90;;;;;;5122915;27;20482;-77
2024/01/19 09:17:09;;;;;;;136.65;68.95;;;6.50;99.90;;;;;;5124376;27;20051;-78
2024/01/19 09:19:34;;;;;;;150.20;73.32;;;6.50;99.90;;;;;;5124149;27;20042;-78
2024/01/19 09:22:03;;;;;;;143.07;68.05;;;6.60;99.90;;;;;;5121427;27;20298;-78
2024/01/19 09:24:32;;;;;;;146.23;71.75;;;6.60;99.90;;;;;;5119757;27;20046;-78
2024/01/19 09:26:58;;;;;;;127.72;66.88;;;6.60;99.90;;;;;;5121187;27;20026;-78
2024/01/19 09:29:24;;;;;;;129.43;66.20;;;6.70;99.90;;;;;;5120081;27;20023;-78
2024/01/19 09:31:49;;;;;;;129.93;67.32;;;6.80;99.90;;;;;;5122694;27;20047;-78
2024/01/19 09:34:15;;;;;;;137.95;70.65;;;6.80;99.90;;;;;;5116317;27;20063;-78
2024/01/19 09:36:41;;;;;;;152.70;77.55;;;6.80;99.90;;;;;;5120993;27;20020;-78
2024/01/19 09:39:07;;;;;;;139.90;76.50;;;6.80;99.90;;;;;;5120718;27;20027;-78
2024/01/19 09:41:45;;;;;;;143.77;72.07;;;6.90;99.90;;;;;;5122370;27;20019;-78
2024/01/19 09:44:12;;;;;;;132.02;68.50;;;6.90;99.90;;;;;;5119159;27;20034;-78
2024/01/19 09:46:47;;;;;;;124.30;65.35;;;6.90;99.90;;;;;;5121996;27;20036;-78
2024/01/19 09:49:28;;;;;;;116.88;65.43;;;6.90;99.90;;;;;;5116584;27;20088;-78
2024/01/19 09:52:02;;;;;;;123.00;64.60;;;7.00;99.90;;;;;;5103483;27;20024;-78
2024/01/19 09:54:35;;;;;;;113.45;61.47;;;7.10;99.90;;;;;;5121490;27;20023;-78
2024/01/19 09:57:04;;;;;;;121.88;68.95;;;7.10;99.90;;;;;;5114822;27;20019;-78
2024/01/19 09:59:31;;;;;;;111.55;63.30;;;7.20;99.90;;;;;;5120727;27;20134;-78
2024/01/19 10:01:58;;;;;;;110.32;61.72;;;7.20;99.90;;;;;;5121059;27;20059;-78
2024/01/19 10:04:24;;;;;;;105.40;60.00;;;7.30;99.90;;;;;;5122282;27;20474;-78
2024/01/19 10:06:51;;;;;;;96.20;55.85;;;7.40;99.90;;;;;;5119614;27;20524;-78
2024/01/19 10:09:19;;;;;;;104.57;57.92;;;7.50;99.90;;;;;;5113729;27;20027;-78
2024/01/19 10:11:49;;;;;;;95.65;57.38;;;7.50;99.90;;;;;;5119936;27;20020;-78
2024/01/19 10:14:15;;;;;;;103.43;59.80;;;7.50;99.90;;;;;;5120722;27;20095;-78
2024/01/19 10:16:42;;;;;;;101.65;58.05;;;7.60;99.90;;;;;;5119407;27;20127;-78
2024/01/19 10:19:09;;;;;;;99.53;56.65;;;7.60;99.90;;;;;;5120125;27;20071;-78
2024/01/19 10:21:35;;;;;;;100.55;57.30;;;7.60;99.90;;;;;;5119958;27;20026;-78
2024/01/19 10:24:20;;;;;;;105.80;56.22;;;7.70;99.90;;;;;;5118063;27;20027;-78
2024/01/19 10:26:55;;;;;;;95.88;55.88;;;7.70;99.90;;;;;;5120282;27;20117;-78
2024/01/19 10:29:22;;;;;;;98.43;56.60;;;7.70;99.90;;;;;;5123588;27;20023;-78
2024/01/19 10:31:49;;;;;;;107.63;58.30;;;7.70;99.90;;;;;;5121407;27;20057;-78
2024/01/19 10:34:23;;;;;;;97.45;58.17;;;7.70;99.90;;;;;;5121657;27;20030;-78
2024/01/19 10:36:50;;;;;;;97.18;56.78;;;7.80;99.90;;;;;;5117156;27;20015;-78
2024/01/19 10:39:16;;;;;;;89.10;54.97;;;7.80;99.90;;;;;;5119992;27;20027;-78
2024/01/19 10:41:42;;;;;;;96.25;57.97;;;7.80;99.90;;;;;;5119459;27;20364;-78
2024/01/19 10:44:12;;;;;;;95.68;56.83;;;7.80;99.90;;;;;;5120659;27;20028;-78
2024/01/19 10:46:38;;;;;;;97.10;57.63;;;7.90;99.90;;;;;;5120056;27;20096;-78
2024/01/19 10:49:05;;;;;;;93.00;56.03;;;7.90;99.90;;;;;;5119290;27;20390;-78
2024/01/19 10:51:34;;;;;;;94.65;57.72;;;7.90;99.90;;;;;;5121838;27;20019;-78
2024/01/19 10:54:05;;;;;;;89.57;55.92;;;7.90;99.90;;;;;;5117231;27;20023;-78
2024/01/19 10:56:34;;;;;;;96.93;55.88;;;8.00;99.90;;;;;;5118971;27;20015;-78
2024/01/19 10:59:10;;;;;;;82.40;51.45;;;8.00;99.90;;;;;;5120904;27;20021;-78
2024/01/19 11:01:36;;;;;;;89.45;53.20;;;8.00;99.90;;;;;;5116340;27;20031;-78
2024/01/19 11:04:03;;;;;;;97.40;54.58;;;8.00;99.90;;;;;;5119101;27;20081;-78
2024/01/19 11:06:29;;;;;;;90.82;54.63;;;8.00;99.90;;;;;;5119416;27;20023;-78
2024/01/19 11:08:58;;;;;;;91.32;55.40;;;8.00;99.90;;;;;;5116253;27;20025;-78
2024/01/19 11:11:26;;;;;;;87.70;53.10;;;8.00;99.90;;;;;;5113692;27;20028;-77
2024/01/19 11:13:58;;;;;;;88.88;50.15;;;8.00;99.90;;;;;;5112156;27;20023;-77
2024/01/19 11:16:27;;;;;;;90.05;50.22;;;8.00;99.90;;;;;;5115720;27;20070;-77
2024/01/19 11:18:54;;;;;;;89.93;51.85;;;7.90;99.90;;;;;;5113735;27;20083;-77
2024/01/19 11:21:21;;;;;;;91.22;51.28;;;8.00;99.90;;;;;;5116186;27;20031;-77
2024/01/19 11:23:47;;;;;;;93.57;52.67;;;8.00;99.90;;;;;;5111786;27;20072;-77
2024/01/19 11:26:20;;;;;;;90.55;49.72;;;7.90;99.90;;;;;;5117825;27;20023;-77
2024/01/19 11:28:54;;;;;;;87.60;51.28;;;7.90;99.90;;;;;;5114373;27;20510;-78
2024/01/19 11:31:22;;;;;;;48.30;30.33;;;7.80;99.90;;;;;;5115274;27;20193;-77
2024/01/19 11:33:48;;;;;;;55.25;33.22;;;7.80;99.90;;;;;;5112095;27;20501;-77
2024/01/19 11:36:43;;;;;;;39.45;26.27;;;7.80;99.90;;;;;;5116364;27;20387;-77
2024/01/19 11:39:09;;;;;;;28.17;19.33;;;7.80;99.90;;;;;;5138202;27;20126;-77
2024/01/19 11:41:35;;;;;;;45.05;29.77;;;7.80;99.90;;;;;;5115934;27;20091;-77
2024/01/19 11:44:09;;;;;;;28.95;18.98;;;7.90;99.90;;;;;;5111907;27;20428;-77
2024/01/19 11:46:46;;;;;;;20.02;14.80;;;7.90;99.90;;;;;;5114662;27;20008;-78
2024/01/19 11:49:30;;;;;;;7.72;6.93;;;8.00;99.90;;;;;;5114829;27;20029;-79
2024/01/19 11:52:00;;;;;;;4.35;4.05;;;8.00;99.90;;;;;;5112457;27;20713;-78
2024/01/19 11:54:30;;;;;;;3.85;3.55;;;8.00;99.90;;;;;;5112856;27;20028;-78
2024/01/19 11:57:15;;;;;;;6.22;5.53;;;8.10;99.90;;;;;;5115214;27;20024;-77
2024/01/19 11:59:40;;;;;;;3.03;2.83;;;8.10;99.90;;;;;;5112778;27;20083;-77
2024/01/19 12:02:06;;;;;;;12.45;9.05;;;8.20;99.90;;;;;;5111721;27;20036;-77
2024/01/19 12:04:36;;;;;;;70.57;43.22;;;8.20;99.90;;;;;;5118353;27;20019;-77
2024/01/19 12:07:06;;;;;;;23.33;17.23;;;8.20;99.90;;;;;;5108175;27;20070;-77
2024/01/19 12:09:33;;;;;;;11.45;8.77;;;8.20;99.90;;;;;;5118043;27;20027;-78
2024/01/19 12:11:59;;;;;;;5.10;4.63;;;8.20;99.90;;;;;;5114433;27;20126;-77
2024/01/19 12:14:24;;;;;;;4.03;3.63;;;8.20;99.90;;;;;;5114883;27;20526;-78
2024/01/19 12:16:50;;;;;;;4.40;4.00;;;8.20;99.90;;;;;;5109058;27;20388;-77
2024/01/19 12:19:16;;;;;;;3.65;3.35;;;8.30;99.90;;;;;;5115212;27;20034;-77
2024/01/19 12:21:42;;;;;;;1.10;1.10;;;8.30;99.90;;;;;;5116752;27;20023;-77
2024/01/19 12:24:08;;;;;;;0.60;0.60;;;8.30;99.90;;;;;;5116869;27;20023;-77
2024/01/19 12:26:35;;;;;;;1.95;0.80;;;8.30;99.90;;;;;;5114647;28;20069;-77
2024/01/19 12:29:00;;;;;;;0.73;0.73;;;8.30;99.90;;;;;;5107002;28;20076;-77
2024/01/19 12:31:30;;;;;;;0.95;0.95;;;8.30;99.90;;;;;;5106930;28;20412;-77